createdAt,value
2022-12-11T00:00:40.548Z,98126.31
2022-12-11T00:03:15.403Z,98160.41
2022-12-11T00:05:44.388Z,98151.56
2022-12-11T00:08:12.625Z,98163.69
2022-12-11T00:10:48.927Z,98168.72
2022-12-11T00:13:16.875Z,98180.81
2022-12-11T00:15:44.849Z,98163.50
2022-12-11T00:18:14.006Z,98177.47
2022-12-11T00:20:42.198Z,98168.34
2022-12-11T00:23:10.810Z,98195.41
2022-12-11T00:25:45.066Z,98200.13
2022-12-11T00:28:13.934Z,98202.97
2022-12-11T00:30:42.866Z,98218.31
2022-12-11T00:33:11.713Z,98229.44
2022-12-11T00:35:40.368Z,98222.53
2022-12-11T00:38:08.820Z,98230.91
2022-12-11T00:40:37.847Z,98230.09
2022-12-11T00:43:07.620Z,98244.22
2022-12-11T00:45:38.141Z,98242.72
2022-12-11T00:48:06.934Z,98238.69
2022-12-11T00:50:35.185Z,98232.47
2022-12-11T00:53:03.391Z,98237.50
2022-12-11T00:55:31.611Z,98251.44
2022-12-11T00:57:59.554Z,98238.34
2022-12-11T01:00:28.998Z,98232.75
2022-12-11T01:02:57.077Z,98254.97
2022-12-11T01:05:25.153Z,98240.00
2022-12-11T01:07:53.198Z,98244.03
2022-12-11T01:10:26.042Z,98238.81
2022-12-11T01:12:55.508Z,98233.94
2022-12-11T01:15:24.378Z,98251.22
2022-12-11T01:17:54.389Z,98248.75
2022-12-11T01:20:24.811Z,98258.81
2022-12-11T01:22:54.061Z,98243.88
2022-12-11T01:25:22.448Z,98256.97
2022-12-11T01:27:52.773Z,98259.66
2022-12-11T01:30:22.960Z,98258.81
2022-12-11T01:32:51.138Z,98271.25
2022-12-11T01:35:21.678Z,98280.53
2022-12-11T01:37:50.188Z,98292.13
2022-12-11T01:40:20.978Z,98282.34
2022-12-11T01:42:49.020Z,98288.75
2022-12-11T01:45:33.279Z,98296.34
2022-12-11T01:48:05.587Z,98292.13
2022-12-11T01:50:37.236Z,98332.13
2022-12-11T01:53:08.204Z,98321.22
2022-12-11T01:55:38.944Z,98337.34
2022-12-11T01:58:07.704Z,98335.50
2022-12-11T02:00:35.751Z,98322.75
2022-12-11T02:03:03.859Z,98325.94
2022-12-11T02:05:31.806Z,98339.69
2022-12-11T02:08:03.445Z,98335.34
2022-12-11T02:10:49.629Z,98326.09
2022-12-11T02:13:23.377Z,98344.25
2022-12-11T02:15:58.720Z,98362.19
2022-12-11T02:18:32.901Z,98388.56
2022-12-11T02:21:10.254Z,98378.59
2022-12-11T02:24:08.442Z,98381.28
2022-12-11T02:26:54.430Z,98404.78
2022-12-11T02:29:30.796Z,98398.22
2022-12-11T02:32:04.153Z,98405.13
2022-12-11T02:34:38.967Z,98398.84
2022-12-11T02:37:10.297Z,98432.06
2022-12-11T02:39:42.086Z,98405.09
2022-12-11T02:42:12.392Z,98426.34
2022-12-11T02:44:42.518Z,98439.22
2022-12-11T02:47:17.631Z,98453.13
2022-12-11T02:49:50.612Z,98459.16
2022-12-11T02:52:23.408Z,98482.47
2022-12-11T02:54:53.341Z,98484.00
2022-12-11T02:57:28.809Z,98472.91
2022-12-11T02:59:58.166Z,98494.75
2022-12-11T03:02:26.028Z,98507.31
2022-12-11T03:04:54.145Z,98495.91
2022-12-11T03:07:26.486Z,98494.88
2022-12-11T03:09:54.867Z,98498.41
2022-12-11T03:12:26.733Z,98540.56
2022-12-11T03:14:54.889Z,98518.22
2022-12-11T03:17:26.596Z,98513.22
2022-12-11T03:20:00.949Z,98522.22
2022-12-11T03:22:35.111Z,98523.88
2022-12-11T03:25:06.035Z,98525.66
2022-12-11T03:27:38.141Z,98529.81
2022-12-11T03:30:10.182Z,98538.00
2022-12-11T03:32:44.909Z,98546.03
2022-12-11T03:35:18.670Z,98534.16
2022-12-11T03:37:49.367Z,98546.91
2022-12-11T03:40:20.565Z,98569.09
2022-12-11T03:42:52.042Z,98575.53
2022-12-11T03:45:22.251Z,98594.31
2022-12-11T03:47:53.843Z,98570.19
2022-12-11T03:50:24.972Z,98553.56
2022-12-11T03:52:54.887Z,98566.34
2022-12-11T03:55:23.998Z,98583.59
2022-12-11T03:57:52.117Z,98586.06
2022-12-11T04:00:22.176Z,98595.56
2022-12-11T04:03:11.188Z,98590.28
2022-12-11T04:05:41.911Z,98605.06
2022-12-11T04:08:10.032Z,98593.34
2022-12-11T04:10:38.187Z,98599.03
2022-12-11T04:13:06.254Z,98624.44
2022-12-11T04:15:33.473Z,98619.06
2022-12-11T04:18:20.378Z,98632.34
2022-12-11T04:21:05.663Z,98648.44
2022-12-11T04:23:50.972Z,98641.53
2022-12-11T04:26:21.393Z,98653.81
2022-12-11T04:28:50.454Z,98660.13
2022-12-11T04:31:19.813Z,98665.38
2022-12-11T04:33:49.628Z,98672.88
2022-12-11T04:36:18.543Z,98679.69
2022-12-11T04:38:46.502Z,98689.19
2022-12-11T04:41:16.764Z,98687.63
2022-12-11T04:43:45.505Z,98694.97
2022-12-11T04:46:15.488Z,98688.06
2022-12-11T04:48:44.365Z,98705.41
2022-12-11T04:51:14.303Z,98701.78
2022-12-11T04:53:42.537Z,98719.25
2022-12-11T04:56:12.924Z,98735.19
2022-12-11T04:58:41.892Z,98722.09
2022-12-11T05:01:10.398Z,98729.97
2022-12-11T05:03:38.535Z,98717.25
2022-12-11T05:06:07.015Z,98728.28
2022-12-11T05:08:38.859Z,98740.03
2022-12-11T05:11:09.702Z,98742.84
2022-12-11T05:13:38.136Z,98738.50
2022-12-11T05:16:07.520Z,98745.50
2022-12-11T05:18:35.750Z,98750.56
2022-12-11T05:21:07.222Z,98757.97
2022-12-11T05:23:37.182Z,98761.25
2022-12-11T05:26:07.058Z,98773.50
2022-12-11T05:28:36.987Z,98783.56
2022-12-11T05:31:07.751Z,98762.72
2022-12-11T05:33:36.374Z,98775.22
2022-12-11T05:36:05.508Z,98765.91
2022-12-11T05:38:33.616Z,98773.94
2022-12-11T05:41:05.363Z,98772.38
2022-12-11T05:43:36.554Z,98767.00
2022-12-11T05:46:08.730Z,98787.63
2022-12-11T05:48:37.725Z,98782.56
2022-12-11T05:51:06.748Z,98785.06
2022-12-11T05:53:34.883Z,98786.63
2022-12-11T05:56:05.303Z,98803.28
2022-12-11T05:58:33.397Z,98802.44
2022-12-11T06:01:01.865Z,98812.47
2022-12-11T06:03:29.834Z,98817.13
2022-12-11T06:05:57.821Z,98838.56
2022-12-11T06:08:25.940Z,98829.72
2022-12-11T06:10:53.998Z,98826.88
2022-12-11T06:13:23.327Z,98834.47
2022-12-11T06:15:51.405Z,98842.09
2022-12-11T06:18:19.627Z,98854.78
2022-12-11T06:20:47.587Z,98854.53
2022-12-11T06:23:15.620Z,98855.25
2022-12-11T06:25:43.582Z,98858.22
2022-12-11T06:28:11.539Z,98863.81
2022-12-11T06:30:41.137Z,98862.13
2022-12-11T06:33:09.033Z,98861.56
2022-12-11T06:35:42.064Z,98861.72
2022-12-11T06:38:10.751Z,98859.88
2022-12-11T06:40:38.998Z,98860.69
2022-12-11T06:43:06.984Z,98873.13
2022-12-11T06:45:35.039Z,98861.72
2022-12-11T06:48:04.791Z,98873.13
2022-12-11T06:50:32.743Z,98881.44
2022-12-11T06:53:00.749Z,98880.72
2022-12-11T06:55:28.659Z,98891.31
2022-12-11T06:57:56.771Z,98893.28
2022-12-11T07:00:24.727Z,98892.44
2022-12-11T07:02:52.724Z,98902.44
2022-12-11T07:05:22.100Z,98904.16
2022-12-11T07:07:50.128Z,98908.53
2022-12-11T07:10:18.235Z,98904.72
2022-12-11T07:12:46.239Z,98912.22
2022-12-11T07:15:14.360Z,98912.19
2022-12-11T07:17:42.505Z,98915.44
2022-12-11T07:20:11.414Z,98909.78
2022-12-11T07:22:46.273Z,98925.59
2022-12-11T07:25:15.352Z,98925.16
2022-12-11T07:27:43.558Z,98937.16
2022-12-11T07:30:12.832Z,98946.47
2022-12-11T07:32:40.943Z,98938.16
2022-12-11T07:35:10.261Z,98961.84
2022-12-11T07:37:42.883Z,98972.56
2022-12-11T07:40:11.635Z,98968.34
2022-12-11T07:42:45.815Z,98973.41
2022-12-11T07:45:14.390Z,98989.78
2022-12-11T07:47:42.900Z,98975.97
2022-12-11T07:50:11.139Z,99013.06
2022-12-11T07:52:39.142Z,99011.22
2022-12-11T07:55:09.481Z,99017.28
2022-12-11T07:57:37.738Z,99024.06
2022-12-11T08:00:06.819Z,99026.31
2022-12-11T08:02:40.404Z,99037.59
2022-12-11T08:05:09.911Z,99035.06
2022-12-11T08:07:38.237Z,99033.66
2022-12-11T08:10:08.274Z,99027.59
2022-12-11T08:12:36.264Z,99044.81
2022-12-11T08:15:04.475Z,99044.69
2022-12-11T08:17:38.359Z,99052.41
2022-12-11T08:20:09.457Z,99058.06
2022-12-11T08:22:37.390Z,99064.56
2022-12-11T08:25:05.876Z,99066.97
2022-12-11T08:27:35.269Z,99076.56
2022-12-11T08:30:02.977Z,99073.16
2022-12-11T08:32:30.940Z,99084.16
2022-12-11T08:34:58.930Z,99085.44
2022-12-11T08:37:26.878Z,99086.84
2022-12-11T08:39:54.852Z,99090.97
2022-12-11T08:42:22.857Z,99087.72
2022-12-11T08:44:52.273Z,99085.31
2022-12-11T08:47:21.300Z,99088.69
2022-12-11T08:49:49.179Z,99100.41
2022-12-11T08:52:17.229Z,99089.97
2022-12-11T08:54:45.161Z,99103.09
2022-12-11T08:57:13.242Z,99098.31
2022-12-11T08:59:42.005Z,99089.84
2022-12-11T09:02:13.473Z,99098.31
2022-12-11T09:04:41.822Z,99096.03
2022-12-11T09:07:09.775Z,99099.31
2022-12-11T09:09:37.879Z,99090.53
2022-12-11T09:12:06.376Z,99088.16
2022-12-11T09:14:34.524Z,99095.19
2022-12-11T09:17:02.466Z,99097.03
2022-12-11T09:19:32.497Z,99102.53
2022-12-11T09:22:00.644Z,99092.09
2022-12-11T09:24:28.665Z,99095.63
2022-12-11T09:26:56.625Z,99080.22
2022-12-11T09:29:24.587Z,99061.31
2022-12-11T09:31:52.574Z,99071.47
2022-12-11T09:34:23.657Z,99060.47
2022-12-11T09:36:56.814Z,99067.53
2022-12-11T09:39:24.596Z,99064.56
2022-12-11T09:42:00.030Z,99053.44
2022-12-11T09:44:41.362Z,99064.41
2022-12-11T09:47:28.552Z,99068.66
2022-12-11T09:50:04.278Z,99073.31
2022-12-11T09:52:38.742Z,99071.91
2022-12-11T09:55:16.160Z,99069.66
2022-12-11T09:57:57.662Z,99039.03
2022-12-11T10:00:34.852Z,99069.34
2022-12-11T10:03:26.900Z,99069.78
2022-12-11T10:06:06.627Z,99064.81
2022-12-11T10:08:42.893Z,99070.03
2022-12-11T10:11:33.185Z,99068.94
2022-12-11T10:14:07.916Z,99050.31
2022-12-11T10:16:40.291Z,99082.63
2022-12-11T10:19:15.877Z,99083.03
2022-12-11T10:21:44.595Z,99070.34
2022-12-11T10:24:42.191Z,99089.53
2022-12-11T10:27:19.388Z,99084.16
2022-12-11T10:29:48.104Z,99082.19
2022-12-11T10:32:24.593Z,99084.84
2022-12-11T10:35:00.301Z,99080.03
2022-12-11T10:37:28.340Z,99072.97
2022-12-11T10:39:57.720Z,99083.31
2022-12-11T10:42:25.699Z,99080.31
2022-12-11T10:44:58.798Z,99072.44
2022-12-11T10:47:26.996Z,99059.56
2022-12-11T10:49:58.282Z,99056.47
2022-12-11T10:52:28.640Z,99042.84
2022-12-11T10:55:01.164Z,99039.88
2022-12-11T10:57:30.887Z,99038.63
2022-12-11T11:00:00.537Z,99046.22
2022-12-11T11:02:32.087Z,99049.38
2022-12-11T11:05:02.102Z,99024.34
2022-12-11T11:07:33.194Z,99027.13
2022-12-11T11:10:15.327Z,99040.28
2022-12-11T11:12:45.588Z,99044.25
2022-12-11T11:15:16.945Z,99047.63
2022-12-11T11:17:54.557Z,99054.28
2022-12-11T11:20:26.646Z,99066.84
2022-12-11T11:22:57.522Z,99060.53
2022-12-11T11:25:28.912Z,99055.53
2022-12-11T11:27:59.280Z,99066.56
2022-12-11T11:30:30.122Z,99068.84
2022-12-11T11:33:02.249Z,99063.16
2022-12-11T11:35:32.016Z,99078.19
2022-12-11T11:38:07.801Z,99061.91
2022-12-11T11:40:42.464Z,99075.75
2022-12-11T11:43:19.526Z,99064.00
2022-12-11T11:45:54.858Z,99074.38
2022-12-11T11:48:35.229Z,99076.47
2022-12-11T11:51:14.792Z,99070.56
2022-12-11T11:53:46.434Z,99069.41
2022-12-11T11:56:22.400Z,99068.56
2022-12-11T11:59:02.320Z,99065.44
2022-12-11T12:01:30.809Z,99061.50
2022-12-11T12:03:59.413Z,99053.44
2022-12-11T12:06:39.664Z,99027.88
2022-12-11T12:09:22.053Z,99051.41
2022-12-11T12:12:00.467Z,99044.41
2022-12-11T12:17:28.055Z,99040.28
2022-12-11T12:20:08.129Z,99049.59
2022-12-11T12:22:52.524Z,99054.69
2022-12-11T12:25:26.993Z,99049.59
2022-12-11T12:28:04.362Z,99071.47
2022-12-11T12:30:41.402Z,99071.38
2022-12-11T12:33:26.398Z,99066.84
2022-12-11T12:36:04.956Z,99069.13
2022-12-11T12:38:46.315Z,99069.41
2022-12-11T12:41:19.784Z,99069.25
2022-12-11T12:44:01.308Z,99071.53
2022-12-11T12:46:44.641Z,99076.63
2022-12-11T12:49:17.486Z,99092.44
2022-12-11T12:51:47.087Z,99096.41
2022-12-11T12:54:18.856Z,99100.09
2022-12-11T12:56:48.496Z,99096.56
2022-12-11T12:59:26.416Z,99098.50
2022-12-11T13:01:58.501Z,99091.19
2022-12-11T13:04:55.439Z,99110.25
2022-12-11T13:07:29.824Z,99099.38
2022-12-11T13:10:06.651Z,99102.78
2022-12-11T13:12:45.865Z,99110.91
2022-12-11T13:15:28.452Z,99118.84
2022-12-11T13:17:58.605Z,99124.50
2022-12-11T13:20:28.366Z,99129.88
2022-12-11T13:23:10.056Z,99126.06
2022-12-11T13:25:50.674Z,99116.91
2022-12-11T13:28:26.223Z,99137.22
2022-12-11T13:31:07.650Z,99129.16
2022-12-11T13:33:44.844Z,99140.91
2022-12-11T13:36:39.519Z,99148.97
2022-12-11T13:39:17.103Z,99149.34
2022-12-11T13:41:48.384Z,99140.63
2022-12-11T13:44:22.871Z,99147.72
2022-12-11T13:46:52.444Z,99155.75
2022-12-11T13:49:25.599Z,99155.31
2022-12-11T13:51:56.987Z,99153.63
2022-12-11T13:54:25.799Z,99158.13
2022-12-11T13:57:02.392Z,99165.59
2022-12-11T13:59:34.101Z,99172.25
2022-12-11T14:02:07.244Z,99164.91
2022-12-11T14:04:36.955Z,99170.44
2022-12-11T14:07:09.159Z,99159.28
2022-12-11T14:09:40.395Z,99159.13
2022-12-11T14:12:10.424Z,99166.75
2022-12-11T14:14:43.206Z,99166.06
2022-12-11T14:17:15.622Z,99163.91
2022-12-11T14:19:49.144Z,99160.69
2022-12-11T14:22:22.733Z,99158.69
2022-12-11T14:24:52.331Z,99162.91
2022-12-11T14:27:21.331Z,99168.56
2022-12-11T14:29:49.377Z,99154.03
2022-12-11T14:32:21.748Z,99159.72
2022-12-11T14:34:52.546Z,99171.28
2022-12-11T14:37:24.565Z,99162.09
2022-12-11T14:39:59.207Z,99178.38
2022-12-11T14:42:31.028Z,99161.41
2022-12-11T14:45:04.267Z,99170.59
2022-12-11T14:47:35.463Z,99159.44
2022-12-11T14:50:09.710Z,99165.06
2022-12-11T14:52:42.287Z,99179.34
2022-12-11T14:55:16.898Z,99181.91
2022-12-11T14:57:48.663Z,99175.84
2022-12-11T15:00:25.291Z,99185.72
2022-12-11T15:03:01.423Z,99186.97
2022-12-11T15:05:37.142Z,99193.63
2022-12-11T15:08:24.804Z,99191.38
2022-12-11T15:11:03.104Z,99194.19
2022-12-11T15:13:31.783Z,99191.22
2022-12-11T15:16:00.587Z,99194.34
2022-12-11T15:18:32.070Z,99192.06
2022-12-11T15:21:05.251Z,99197.72
2022-12-11T15:23:33.273Z,99188.84
2022-12-11T15:26:02.877Z,99197.44
2022-12-11T15:28:34.314Z,99200.56
2022-12-11T15:31:04.197Z,99190.69
2022-12-11T15:33:34.785Z,99206.63
2022-12-11T15:36:07.965Z,99209.75
2022-12-11T15:38:39.527Z,99204.50
2022-12-11T15:41:14.173Z,99207.06
2022-12-11T15:43:42.638Z,99205.66
2022-12-11T15:46:10.646Z,99211.44
2022-12-11T15:48:38.666Z,99210.31
2022-12-11T15:51:08.422Z,99215.81
2022-12-11T15:53:36.365Z,99222.75
2022-12-11T15:56:04.628Z,99227.00
2022-12-11T15:58:32.794Z,99218.22
2022-12-11T16:01:00.803Z,99217.25
2022-12-11T16:03:28.761Z,99214.69
2022-12-11T16:05:56.850Z,99217.66
2022-12-11T16:08:26.332Z,99219.78
2022-12-11T16:10:56.157Z,99223.31
2022-12-11T16:13:24.181Z,99219.06
2022-12-11T16:15:54.332Z,99219.50
2022-12-11T16:18:24.321Z,99228.56
2022-12-11T16:20:53.076Z,99219.06
2022-12-11T16:23:21.916Z,99216.69
2022-12-11T16:25:51.988Z,99203.41
2022-12-11T16:28:21.920Z,99211.16
2022-12-11T16:30:49.985Z,99208.75
2022-12-11T16:33:18.364Z,99202.81
2022-12-11T16:35:46.336Z,99204.94
2022-12-11T16:38:14.282Z,99196.44
2022-12-11T16:40:42.601Z,99200.00
2022-12-11T16:43:12.010Z,99202.53
2022-12-11T16:45:42.078Z,99201.69
2022-12-11T16:48:10.861Z,99202.69
2022-12-11T16:50:40.942Z,99203.66
2022-12-11T16:53:08.976Z,99209.47
2022-12-11T16:55:36.940Z,99206.78
2022-12-11T16:58:04.897Z,99214.97
2022-12-11T17:00:34.393Z,99206.78
2022-12-11T17:03:02.478Z,99201.56
2022-12-11T17:05:30.393Z,99198.03
2022-12-11T17:07:59.084Z,99202.53
2022-12-11T17:10:27.090Z,99212.00
2022-12-11T17:12:55.217Z,99214.66
2022-12-11T17:15:23.266Z,99223.03
2022-12-11T17:17:52.585Z,99222.88
2022-12-11T17:20:20.333Z,99226.13
2022-12-11T17:22:48.403Z,99233.75
2022-12-11T17:25:22.244Z,99225.41
2022-12-11T17:27:50.239Z,99220.31
2022-12-11T17:30:18.284Z,99223.00
2022-12-11T17:32:49.141Z,99224.84
2022-12-11T17:35:18.846Z,99210.03
2022-12-11T17:37:47.199Z,99209.44
2022-12-11T17:40:15.231Z,99213.56
2022-12-11T17:42:44.065Z,99223.00
2022-12-11T17:45:12.983Z,99218.34
2022-12-11T17:47:41.270Z,99214.28
2022-12-11T17:50:09.880Z,99214.97
2022-12-11T17:52:44.000Z,99219.63
2022-12-11T17:55:12.780Z,99216.09
2022-12-11T17:57:41.069Z,99218.63
2022-12-11T18:00:10.447Z,99220.03
2022-12-11T18:02:40.285Z,99225.13
2022-12-11T18:05:09.013Z,99217.78
2022-12-11T18:07:39.502Z,99211.72
2022-12-11T18:10:07.970Z,99218.63
2022-12-11T18:12:35.953Z,99220.19
2022-12-11T18:15:04.596Z,99218.34
2022-12-11T18:17:32.801Z,99222.56
2022-12-11T18:20:00.769Z,99221.44
2022-12-11T18:22:28.802Z,99217.78
2022-12-11T18:24:59.415Z,99230.63
2022-12-11T18:27:28.366Z,99235.03
2022-12-11T18:29:56.328Z,99220.03
2022-12-11T18:32:24.679Z,99223.72
2022-12-11T18:34:52.679Z,99219.75
2022-12-11T18:37:26.301Z,99220.31
2022-12-11T18:39:56.151Z,99228.94
2022-12-11T18:42:32.737Z,99227.25
2022-12-11T18:45:01.206Z,99225.56
2022-12-11T18:47:29.292Z,99234.19
2022-12-11T18:49:59.185Z,99237.44
2022-12-11T18:52:29.166Z,99240.94
2022-12-11T18:54:57.503Z,99235.44
2022-12-11T18:57:26.820Z,99248.00
2022-12-11T18:59:54.898Z,99250.56
2022-12-11T19:02:23.266Z,99258.72
2022-12-11T19:04:51.265Z,99257.06
2022-12-11T19:07:19.186Z,99261.41
2022-12-11T19:09:48.397Z,99257.63
2022-12-11T19:12:16.919Z,99257.16
2022-12-11T19:14:46.313Z,99264.53
2022-12-11T19:17:14.227Z,99260.13
2022-12-11T19:19:43.215Z,99267.06
2022-12-11T19:22:11.205Z,99264.38
2022-12-11T19:24:39.266Z,99269.06
2022-12-11T19:27:13.473Z,99261.97
2022-12-11T19:29:41.799Z,99263.97
2022-12-11T19:32:11.170Z,99270.88
2022-12-11T19:34:39.520Z,99273.72
2022-12-11T19:37:07.477Z,99273.56
2022-12-11T19:39:35.461Z,99274.72
2022-12-11T19:42:03.424Z,99283.59
2022-12-11T19:44:32.904Z,99282.31
2022-12-11T19:47:01.095Z,99284.16
2022-12-11T19:49:30.479Z,99283.88
2022-12-11T19:51:58.477Z,99276.13
2022-12-11T19:54:27.468Z,99280.75
2022-12-11T19:56:55.443Z,99278.50
2022-12-11T19:59:23.319Z,99272.59
2022-12-11T20:01:51.303Z,99274.84
2022-12-11T20:04:19.995Z,99268.78
2022-12-11T20:06:49.442Z,99263.25
2022-12-11T20:09:18.155Z,99261.69
2022-12-11T20:11:47.398Z,99254.22
2022-12-11T20:14:22.537Z,99273.44
2022-12-11T20:17:11.009Z,99267.50
2022-12-11T20:19:41.687Z,99279.91
2022-12-11T20:22:11.556Z,99286.13
2022-12-11T20:24:39.538Z,99284.84
2022-12-11T20:27:07.633Z,99287.13
2022-12-11T20:29:35.602Z,99289.81
2022-12-11T20:32:05.769Z,99288.69
2022-12-11T20:34:33.860Z,99299.69
2022-12-11T20:37:01.774Z,99293.16
2022-12-11T20:39:32.036Z,99308.44
2022-12-11T20:42:01.179Z,99315.06
2022-12-11T20:44:29.176Z,99315.47
2022-12-11T20:46:57.103Z,99316.63
2022-12-11T20:49:25.034Z,99329.19
2022-12-11T20:51:56.831Z,99329.31
2022-12-11T20:54:24.825Z,99325.91
2022-12-11T20:56:54.133Z,99329.31
2022-12-11T20:59:22.726Z,99326.50
2022-12-11T21:01:53.347Z,99322.25
2022-12-11T21:04:21.541Z,99321.28
2022-12-11T21:06:55.201Z,99324.97
2022-12-11T21:09:24.903Z,99336.28
2022-12-11T21:11:57.617Z,99330.94
2022-12-11T21:14:25.679Z,99338.41
2022-12-11T21:16:53.706Z,99331.19
2022-12-11T21:19:21.701Z,99327.13
2022-12-11T21:21:50.377Z,99336.22
2022-12-11T21:24:21.229Z,99339.13
2022-12-11T21:26:49.911Z,99344.09
2022-12-11T21:29:19.525Z,99356.53
2022-12-11T21:31:47.616Z,99369.94
2022-12-11T21:34:19.372Z,99379.28
2022-12-11T21:36:54.639Z,99370.50
2022-12-11T21:39:22.612Z,99379.94
2022-12-11T21:42:00.540Z,99375.00
2022-12-11T21:47:18.156Z,99383.81
2022-12-11T21:49:46.079Z,99387.03
2022-12-11T21:52:14.653Z,99386.41
2022-12-11T21:54:45.156Z,99381.69
2022-12-11T21:57:26.515Z,99377.81
2022-12-11T22:00:02.664Z,99382.97
2022-12-11T22:02:41.299Z,99377.59
2022-12-11T22:05:10.815Z,99374.84
2022-12-11T22:07:39.039Z,99373.66
2022-12-11T22:10:08.150Z,99395.00
2022-12-11T22:12:36.118Z,99395.72
2022-12-11T22:15:06.540Z,99398.00
2022-12-11T22:17:34.491Z,99398.00
2022-12-11T22:20:02.400Z,99397.72
2022-12-11T22:22:30.419Z,99388.28
2022-12-11T22:24:58.386Z,99386.72
2022-12-11T22:27:26.283Z,99401.69
2022-12-11T22:29:55.242Z,99395.03
2022-12-11T22:32:24.556Z,99393.34
2022-12-11T22:34:52.369Z,99391.22
2022-12-11T22:37:20.309Z,99395.47
2022-12-11T22:39:48.428Z,99374.41
2022-12-11T22:42:16.353Z,99379.03
2022-12-11T22:44:44.322Z,99382.25
2022-12-11T22:47:12.425Z,99392.88
2022-12-11T22:49:41.748Z,99390.59
2022-12-11T22:52:09.988Z,99401.78
2022-12-11T22:54:39.875Z,99406.22
2022-12-11T22:57:07.976Z,99401.31
2022-12-11T22:59:36.714Z,99403.78
2022-12-11T23:02:04.871Z,99407.16
2022-12-11T23:04:33.155Z,99398.84
2022-12-11T23:07:02.685Z,99383.28
2022-12-11T23:09:30.798Z,99389.06
2022-12-11T23:11:58.834Z,99385.34
2022-12-11T23:14:26.833Z,99390.06
2022-12-11T23:16:54.891Z,99388.03
2022-12-11T23:19:25.618Z,99407.09
2022-12-11T23:21:54.246Z,99397.50
2022-12-11T23:24:24.270Z,99404.63
2022-12-11T23:26:52.302Z,99391.41
2022-12-11T23:29:20.312Z,99383.88
2022-12-11T23:31:48.299Z,99373.84
2022-12-11T23:34:16.262Z,99371.31
2022-12-11T23:36:44.470Z,99375.91
2022-12-11T23:39:12.548Z,99391.56
2022-12-11T23:41:43.678Z,99393.03
2022-12-11T23:44:12.392Z,99404.44
2022-12-11T23:46:42.625Z,99403.97
2022-12-11T23:49:10.607Z,99411.00
2022-12-11T23:51:38.536Z,99410.78
2022-12-11T23:54:06.575Z,99399.53
2022-12-11T23:56:34.579Z,99378.75
2022-12-11T23:59:03.894Z,99376.88
